Chipley, FL

9:06 PM CST on February 19, 2017 (GMT -0600)
Chipley

Weather History for KVSH - March, 2014

Change the Weather History Date:

Tuesday, March 18, 2014

  Actual Average (KDHN) Record (KDHN)
Temperature  
Mean Temperature 54 °F -  
Max Temperature 64 °F 69 °F 88 °F (1945)
Min Temperature 44 °F 48 °F 31 °F (1941)
Degree Days  
Heating Degree Days 11    
Growing Degree Days 4 (Base 50)    
Moisture  
Dew Point 39 °F    
Average Humidity 60    
Maximum Humidity 72    
Minimum Humidity 45    
Precipitation  
Precipitation 0.00 in - - ()
Sea Level Pressure  
Sea Level Pressure 29.95 in    
Wind  
Wind Speed 4 mph (South)    
Max Wind Speed 12 mph    
Max Gust Speed 16 mph    
Visibility 10 miles    
Events      
Averages and records for this station are not official NWS values.
T = Trace of Precipitation, MM = Missing Value Source: NWS Daily Summary

Daily Weather History Graph

Daily Weather History Graph

Search for Another Location

Airport or City:

Trip Planner

Search our weather history database for the weather conditions in past years. The results will help you decide how hot, cold, wet, or windy it might be!

Date:

Astronomy

Mar. 18, 2014 Rise Set
Actual Time 6:48 AM CDT 6:52 PM CDT
Civil Twilight 6:24 AM CDT 7:16 PM CDT
Nautical Twilight 5:56 AM CDT 7:44 PM CDT
Astronomical Twilight 5:28 AM CDT 8:12 PM CDT
Moon 8:58 PM CDT (3/18) 7:46 AM CDT (3/18)
Length of Visible Light 12h 52m
Length of Day
12h 03m
Waning Gibbous, 96% of the Moon is Illuminated
Mar 18
Waning Gibbous
Mar 23
Last Quarter
Mar 30
New
Apr 7
First Quarter
Apr 15
Full

Hourly Weather History & Observations

Time (CDT) Temp. Windchill Dew Point Humidity Pressure Visibility Wind Dir Wind Speed Gust Speed Precip Events Conditions
12:15 AM 46.4 °F 45.2 °F 33.8 °F 62% 29.87 in 10.0 mi NW 3.5 mph - N/A   Overcast
12:35 AM 46.4 °F - 33.8 °F 62% 29.87 in 10.0 mi Calm Calm - N/A   Overcast
12:55 AM 44.6 °F 41.4 °F 33.8 °F 66% 29.87 in 10.0 mi NNW 5.8 mph - N/A   Overcast
1:15 AM 44.6 °F 40.7 °F 33.8 °F 66% 29.87 in 10.0 mi North 6.9 mph - N/A   Overcast
1:35 AM 44.6 °F 41.4 °F 33.8 °F 66% 29.88 in 10.0 mi North 5.8 mph - N/A   Overcast
1:55 AM 44.6 °F 42.2 °F 33.8 °F 66% 29.89 in 10.0 mi WNW 4.6 mph - N/A   Overcast
2:15 AM 44.6 °F 42.2 °F 33.8 °F 66% 29.87 in 10.0 mi NNE 4.6 mph - N/A   Overcast
2:35 AM 44.6 °F 41.4 °F 33.8 °F 66% 29.87 in 10.0 mi North 5.8 mph - N/A   Overcast
2:55 AM 44.6 °F 42.2 °F 33.8 °F 66% 29.88 in 10.0 mi North 4.6 mph - N/A   Overcast
3:15 AM 44.6 °F 43.1 °F 33.8 °F 66% 29.87 in 10.0 mi North 3.5 mph - N/A   Overcast
3:35 AM 44.6 °F - 33.8 °F 66% 29.88 in 10.0 mi Calm Calm - N/A   Overcast
3:55 AM 44.6 °F - 33.8 °F 66% 29.89 in 10.0 mi Calm Calm - N/A   Overcast
4:15 AM 44.6 °F 43.1 °F 33.8 °F 66% 29.89 in 10.0 mi WSW 3.5 mph - N/A   Overcast
4:35 AM 44.6 °F 43.1 °F 33.8 °F 66% 29.90 in 10.0 mi WSW 3.5 mph - N/A   Overcast
4:55 AM 44.6 °F 42.2 °F 33.8 °F 66% 29.92 in 10.0 mi SW 4.6 mph - N/A   Overcast
5:15 AM 44.6 °F 42.2 °F 33.8 °F 66% 29.92 in 10.0 mi West 4.6 mph - N/A   Overcast
5:35 AM 44.6 °F 43.1 °F 33.8 °F 66% 29.92 in 10.0 mi WSW 3.5 mph - N/A   Overcast
5:55 AM 44.6 °F - 33.8 °F 66% 29.92 in 10.0 mi Calm Calm - N/A   Overcast
6:15 AM 44.6 °F 42.2 °F 33.8 °F 66% 29.92 in 10.0 mi NW 4.6 mph - N/A   Overcast
6:35 AM 46.4 °F 44.3 °F 33.8 °F 62% 29.93 in 10.0 mi West 4.6 mph - N/A   Overcast
6:55 AM 44.6 °F 41.4 °F 33.8 °F 66% 29.94 in 10.0 mi WNW 5.8 mph - N/A   Overcast
7:15 AM 46.4 °F 43.5 °F 33.8 °F 62% 29.94 in 10.0 mi West 5.8 mph - N/A   Overcast
7:35 AM 44.6 °F 43.1 °F 33.8 °F 66% 29.95 in 10.0 mi WSW 3.5 mph - N/A   Overcast
7:55 AM 46.4 °F 45.2 °F 33.8 °F 62% 29.95 in 10.0 mi WSW 3.5 mph - N/A   Overcast
8:15 AM 46.4 °F 45.2 °F 33.8 °F 62% 29.95 in 10.0 mi West 3.5 mph - N/A   Overcast
8:35 AM 46.4 °F 45.2 °F 33.8 °F 62% 29.95 in 10.0 mi WNW 3.5 mph - N/A   Overcast
8:55 AM 46.4 °F 44.3 °F 35.6 °F 66% 29.95 in 10.0 mi NW 4.6 mph - N/A   Overcast
9:15 AM 53.6 °F - 37.4 °F 54% 29.96 in 4.0 mi Calm Calm - N/A   Overcast
9:35 AM 51.8 °F - 37.4 °F 58% 29.96 in 5.0 mi NE 4.6 mph - N/A   Overcast
9:55 AM 48.2 °F - 35.6 °F 62% 29.97 in 10.0 mi NNE 3.5 mph - N/A   Overcast
10:15 AM 48.2 °F - 37.4 °F 66% 29.98 in 10.0 mi NNE 3.5 mph - N/A   Mostly Cloudy
10:35 AM 50.0 °F - 37.4 °F 62% 29.97 in 10.0 mi Calm Calm - N/A   Clear
10:55 AM 51.8 °F - 37.4 °F 58% 29.97 in 10.0 mi ENE 3.5 mph - N/A   Clear
11:15 AM 53.6 °F - 37.4 °F 54% 29.96 in 10.0 mi Calm Calm - N/A   Clear
11:35 AM 53.6 °F - 37.4 °F 54% 29.97 in 10.0 mi Calm Calm - N/A   Clear
11:55 AM 53.6 °F - 37.4 °F 54% 29.96 in 10.0 mi Calm Calm - N/A   Clear
12:15 PM 55.4 °F - 39.2 °F 54% 29.97 in 10.0 mi Calm Calm - N/A   Clear
12:35 PM 55.4 °F - 39.2 °F 54% 29.96 in 10.0 mi Calm Calm - N/A   Clear
12:55 PM 57.2 °F - 39.2 °F 51% 29.96 in 10.0 mi Calm Calm - N/A   Clear
1:15 PM 60.8 °F - 39.2 °F 45% 29.96 in 10.0 mi SSE 8.1 mph - N/A   Clear
1:35 PM 60.8 °F - 39.2 °F 45% 29.95 in 10.0 mi South 4.6 mph - N/A   Clear
1:55 PM 62.6 °F - 41.0 °F 45% 29.95 in 10.0 mi SE 6.9 mph - N/A   Clear
2:15 PM 62.6 °F - 42.8 °F 48% 29.95 in 10.0 mi SSE 5.8 mph - N/A   Clear
2:35 PM 62.6 °F - 42.8 °F 48% 29.95 in 10.0 mi SE 8.1 mph - N/A   Clear
2:55 PM 60.8 °F - 42.8 °F 52% 29.95 in 10.0 mi SE 9.2 mph - N/A   Clear
3:15 PM 62.6 °F - 42.8 °F 48% 29.95 in 10.0 mi SSE 11.5 mph - N/A   Clear
3:35 PM 64.4 °F - 42.8 °F 45% 29.95 in 10.0 mi SSE 8.1 mph - N/A   Clear
3:55 PM 64.4 °F - 42.8 °F 45% 29.95 in 10.0 mi South 5.8 mph - N/A   Clear
4:15 PM 64.4 °F - 42.8 °F 45% 29.95 in 10.0 mi SSW 6.9 mph - N/A   Clear
4:35 PM 64.4 °F - 42.8 °F 45% 29.95 in 10.0 mi SSE 10.4 mph - N/A   Clear
4:55 PM 62.6 °F - 42.8 °F 48% 29.94 in 10.0 mi SSE 9.2 mph - N/A   Clear
5:15 PM 60.8 °F - 42.8 °F 52% 29.94 in 10.0 mi SSE 8.1 mph - N/A   Clear
5:35 PM 60.8 °F - 42.8 °F 52% 29.95 in 10.0 mi South 8.1 mph - N/A   Clear
5:55 PM 60.8 °F - 42.8 °F 52% 29.95 in 10.0 mi SSE 10.4 mph - N/A   Clear
6:15 PM 60.8 °F - 42.8 °F 52% 29.95 in 10.0 mi SSE 8.1 mph - N/A   Clear
6:35 PM 59.0 °F - 42.8 °F 55% 29.96 in 10.0 mi South 8.1 mph - N/A   Clear
6:55 PM 59.0 °F - 42.8 °F 55% 29.96 in 10.0 mi South 8.1 mph - N/A   Clear
7:15 PM 59.0 °F - 42.8 °F 55% 29.96 in 10.0 mi SSE 10.4 mph - N/A   Clear
7:35 PM 57.2 °F - 44.6 °F 63% 29.96 in 10.0 mi South 9.2 mph - N/A   Clear
7:55 PM 57.2 °F - 44.6 °F 63% 29.97 in 10.0 mi SSE 6.9 mph - N/A   Clear
8:15 PM 55.4 °F - 44.6 °F 67% 29.98 in 10.0 mi SSE 10.4 mph 16.1 mph N/A   Clear
8:35 PM 55.4 °F - 44.6 °F 67% 29.98 in 10.0 mi SSE 5.8 mph - N/A   Clear
8:55 PM 55.4 °F - 44.6 °F 67% 30.00 in 10.0 mi South 5.8 mph - N/A   Clear
9:15 PM 55.4 °F - 44.6 °F 67% 30.00 in 10.0 mi SSE 6.9 mph - N/A   Clear
9:35 PM 53.6 °F - 42.8 °F 67% 30.01 in 10.0 mi SE 3.5 mph - N/A   Clear
9:55 PM 53.6 °F - 44.6 °F 72% 30.01 in 10.0 mi SSE 5.8 mph - N/A   Clear
10:15 PM 53.6 °F - 44.6 °F 72% 30.01 in 10.0 mi Calm Calm - N/A   Clear
10:35 PM 53.6 °F - 44.6 °F 72% 30.01 in 10.0 mi South 4.6 mph - N/A   Clear
10:55 PM 53.6 °F - 44.6 °F 72% 30.01 in 10.0 mi SE 3.5 mph - N/A   Clear
11:15 PM 53.6 °F - 44.6 °F 72% 30.01 in 10.0 mi SSE 6.9 mph - N/A   Clear
11:35 PM 53.6 °F - 44.6 °F 72% 30.00 in 10.0 mi SE 5.8 mph - N/A   Clear
11:55 PM 53.6 °F - 44.6 °F 72% 30.01 in 10.0 mi South 3.5 mph - N/A   Clear